Time;durP1;ratioP1;P1;durP2;ratioP2;P2;SDS_P1;SDS_P2;PMS_P1;PMS_P2;Temp;Humidity;BMP_temperature;BMP_pressure;BME280_temperature;BME280_humidity;BME280_pressure;Samples;Min_cycle;Max_cycle;Signal;HPM_P1;HPM_P2
2024/01/20 00:01:39;;;;;;;2.80;1.10;;;19.30;50.10;;;;;;5036557;28;20029;-65
2024/01/20 00:04:04;;;;;;;1.80;1.00;;;19.30;50.10;;;;;;5036998;28;20044;-64
2024/01/20 00:06:30;;;;;;;1.90;1.00;;;19.20;50.00;;;;;;5039094;28;20229;-66
2024/01/20 00:08:56;;;;;;;1.50;0.90;;;19.30;50.10;;;;;;5035890;28;20103;-66
2024/01/20 00:11:24;;;;;;;1.88;1.00;;;19.20;50.00;;;;;;5037506;28;20052;-67
2024/01/20 00:13:50;;;;;;;1.90;1.00;;;19.20;49.90;;;;;;5036040;28;20476;-66
2024/01/20 00:16:15;;;;;;;1.77;1.00;;;19.20;49.90;;;;;;5038603;28;20025;-66
2024/01/20 00:18:41;;;;;;;1.83;0.90;;;19.20;49.90;;;;;;5039338;28;20492;-66
2024/01/20 00:21:07;;;;;;;1.77;1.00;;;19.20;49.90;;;;;;5037260;28;20028;-66
2024/01/20 00:23:32;;;;;;;1.63;0.90;;;19.20;49.80;;;;;;5037631;28;20121;-66
2024/01/20 00:25:58;;;;;;;1.85;1.00;;;19.20;49.80;;;;;;5036790;28;20022;-66
2024/01/20 00:28:23;;;;;;;1.30;0.90;;;19.20;49.90;;;;;;5035177;28;20478;-66
2024/01/20 00:30:49;;;;;;;1.13;0.90;;;19.20;49.80;;;;;;5035412;28;20025;-66
2024/01/20 00:33:15;;;;;;;1.25;0.90;;;19.20;49.80;;;;;;5038871;28;20045;-66
2024/01/20 00:35:44;;;;;;;1.77;1.00;;;19.20;49.80;;;;;;5038108;28;20116;-65
2024/01/20 00:38:10;;;;;;;;;;;19.10;49.70;;;;;;5042685;28;20026;-64
2024/01/20 00:40:35;;;;;;;1.40;1.02;;;19.10;49.70;;;;;;5040457;28;19909;-64
2024/01/20 00:43:02;;;;;;;1.38;1.02;;;19.10;49.70;;;;;;5036169;28;20117;-64
2024/01/20 00:45:27;;;;;;;1.50;0.98;;;19.10;49.70;;;;;;5038928;28;20067;-64
2024/01/20 00:47:53;;;;;;;1.75;1.00;;;19.10;49.70;;;;;;5038196;28;20442;-65
2024/01/20 00:50:18;;;;;;;1.58;0.90;;;19.10;49.70;;;;;;5040832;28;20095;-65
2024/01/20 00:52:44;;;;;;;1.45;0.90;;;19.10;49.70;;;;;;5041702;28;20044;-65
2024/01/20 00:55:10;;;;;;;1.90;1.10;;;19.10;49.70;;;;;;5039604;28;20436;-64
2024/01/20 00:57:36;;;;;;;1.42;1.00;;;19.10;49.70;;;;;;5035302;28;20025;-64
2024/01/20 01:00:07;;;;;;;1.52;1.00;;;19.10;49.70;;;;;;5037771;28;20031;-64
2024/01/20 01:02:33;;;;;;;1.35;0.90;;;19.10;49.60;;;;;;5039701;28;20026;-64
2024/01/20 01:04:59;;;;;;;1.75;0.90;;;19.10;49.60;;;;;;5039814;28;20052;-66
2024/01/20 01:07:24;;;;;;;1.30;1.00;;;19.00;49.60;;;;;;5041743;28;20079;-66
2024/01/20 01:09:53;;;;;;;1.38;0.93;;;19.00;49.60;;;;;;5043264;28;20029;-66
2024/01/20 01:12:18;;;;;;;1.67;0.90;;;19.00;49.50;;;;;;5037980;28;20532;-66
2024/01/20 01:14:44;;;;;;;1.17;0.90;;;19.00;49.60;;;;;;5038121;28;20029;-66
2024/01/20 01:17:10;;;;;;;1.20;0.70;;;19.00;49.60;;;;;;5040782;28;20468;-66
2024/01/20 01:19:35;;;;;;;1.90;1.00;;;19.00;49.60;;;;;;5039497;28;20100;-66
2024/01/20 01:22:01;;;;;;;1.13;0.90;;;19.00;49.60;;;;;;5036444;28;20025;-66
2024/01/20 01:24:28;;;;;;;1.95;1.10;;;19.00;49.50;;;;;;5040269;28;20544;-66
2024/01/20 01:26:53;;;;;;;1.50;0.88;;;19.00;49.50;;;;;;5040631;28;20033;-66
2024/01/20 01:29:19;;;;;;;1.25;0.90;;;19.00;49.60;;;;;;5037103;28;20888;-66
2024/01/20 01:31:44;;;;;;;1.52;0.90;;;19.00;49.60;;;;;;5039391;28;20120;-66
2024/01/20 01:34:10;;;;;;;2.03;0.90;;;18.90;49.50;;;;;;5040613;28;20489;-66
2024/01/20 01:36:36;;;;;;;1.73;0.95;;;18.90;49.50;;;;;;5039526;28;20024;-66
2024/01/20 01:39:02;;;;;;;1.73;1.00;;;18.90;49.50;;;;;;5039331;28;20032;-66
2024/01/20 01:41:27;;;;;;;1.27;0.80;;;18.90;49.50;;;;;;5039994;28;20385;-66
2024/01/20 01:43:53;;;;;;;1.35;0.90;;;18.90;49.50;;;;;;5038101;28;20115;-66
2024/01/20 01:46:19;;;;;;;1.40;0.90;;;18.90;49.50;;;;;;5042548;28;20028;-62
2024/01/20 01:48:45;;;;;;;1.45;0.90;;;18.90;49.50;;;;;;5039061;28;20112;-63
2024/01/20 01:51:14;;;;;;;1.58;0.90;;;18.90;49.50;;;;;;5039230;28;20258;-63
2024/01/20 01:53:40;;;;;;;1.73;0.90;;;18.90;49.50;;;;;;5038517;28;20026;-62
2024/01/20 01:56:07;;;;;;;1.58;0.98;;;18.90;49.60;;;;;;5036243;28;20044;-62
2024/01/20 01:58:33;;;;;;;1.50;0.90;;;18.90;49.50;;;;;;5036914;28;20078;-62
2024/01/20 02:00:59;;;;;;;1.65;0.82;;;18.90;49.50;;;;;;5039782;28;20101;-63
2024/01/20 02:03:25;;;;;;;1.30;0.95;;;18.90;49.60;;;;;;5035467;28;20041;-62
2024/01/20 02:05:51;;;;;;;2.03;0.93;;;18.80;49.60;;;;;;5040528;28;20597;-62
2024/01/20 02:08:17;;;;;;;1.48;0.90;;;18.80;50.10;;;;;;5039568;28;20033;-63
2024/01/20 02:10:45;;;;;;;1.00;0.77;;;18.80;49.60;;;;;;5039678;28;20505;-62
2024/01/20 02:13:13;;;;;;;1.90;1.00;;;18.80;49.60;;;;;;5038269;28;20036;-62
2024/01/20 02:15:39;;;;;;;1.40;0.90;;;18.80;50.20;;;;;;5036814;28;20377;-66
2024/01/20 02:18:05;;;;;;;1.48;0.90;;;18.80;49.70;;;;;;5038997;28;20825;-66
2024/01/20 02:20:31;;;;;;;1.20;0.80;;;18.80;49.70;;;;;;5038295;28;20121;-65
2024/01/20 02:22:57;;;;;;;1.00;0.80;;;18.80;49.70;;;;;;5038678;28;20064;-66
2024/01/20 02:25:22;;;;;;;1.55;0.88;;;18.80;49.70;;;;;;5039459;28;20025;-63
2024/01/20 02:27:48;;;;;;;1.70;1.00;;;18.70;49.70;;;;;;5036824;28;20025;-62
2024/01/20 02:30:14;;;;;;;1.50;1.02;;;18.70;49.70;;;;;;5036967;28;20029;-63
2024/01/20 02:32:40;;;;;;;1.10;0.80;;;18.70;49.70;;;;;;5040076;28;20056;-62
2024/01/20 02:35:06;;;;;;;1.10;0.85;;;18.70;49.70;;;;;;5038740;28;20378;-63
2024/01/20 02:37:32;;;;;;;0.90;0.80;;;18.70;49.70;;;;;;5039661;28;20531;-63
2024/01/20 02:39:58;;;;;;;1.20;0.90;;;18.70;49.70;;;;;;5040467;28;20137;-64
2024/01/20 02:42:24;;;;;;;1.40;0.88;;;18.70;49.70;;;;;;5037449;28;20611;-62
2024/01/20 02:44:50;;;;;;;1.45;0.90;;;18.70;49.70;;;;;;5036720;28;20082;-62
2024/01/20 02:47:17;;;;;;;1.42;0.95;;;18.70;49.80;;;;;;5039570;28;20397;-65
2024/01/20 02:49:43;;;;;;;1.35;0.98;;;18.70;49.80;;;;;;5036336;28;20487;-62
2024/01/20 02:52:08;;;;;;;1.40;0.88;;;18.70;49.70;;;;;;5040139;28;20025;-63
2024/01/20 02:54:34;;;;;;;1.70;0.98;;;18.70;49.80;;;;;;5036310;28;20029;-64
2024/01/20 02:56:59;;;;;;;0.95;0.80;;;18.70;49.80;;;;;;5039127;28;20043;-64
2024/01/20 02:59:25;;;;;;;1.80;1.00;;;18.70;49.70;;;;;;5035935;28;20037;-64
2024/01/20 03:01:50;;;;;;;1.02;0.80;;;18.70;49.80;;;;;;5037276;28;20374;-64
2024/01/20 03:04:16;;;;;;;1.20;0.88;;;18.70;49.80;;;;;;5036365;28;20044;-64
2024/01/20 03:06:42;;;;;;;1.70;0.90;;;18.60;49.80;;;;;;5035810;28;20481;-66
2024/01/20 03:09:07;;;;;;;1.48;0.90;;;18.60;49.80;;;;;;5039148;28;20033;-67
2024/01/20 03:11:38;;;;;;;1.17;0.80;;;18.60;49.80;;;;;;5037846;28;20034;-67
2024/01/20 03:14:03;;;;;;;0.95;0.75;;;18.60;49.80;;;;;;5033446;28;20033;-66
2024/01/20 03:16:29;;;;;;;1.48;0.82;;;18.60;49.80;;;;;;5038939;28;20026;-67
2024/01/20 03:18:54;;;;;;;1.50;1.00;;;18.60;49.80;;;;;;5037402;28;20093;-66
2024/01/20 03:21:20;;;;;;;1.23;0.85;;;18.60;49.80;;;;;;5038913;28;20033;-66
2024/01/20 03:23:45;;;;;;;1.15;0.80;;;18.60;49.80;;;;;;5039075;28;20486;-67
2024/01/20 03:26:11;;;;;;;1.00;0.80;;;18.60;49.80;;;;;;5038065;28;20037;-67
2024/01/20 03:28:38;;;;;;;1.05;0.80;;;18.60;50.30;;;;;;5039605;28;20028;-66
2024/01/20 03:31:03;;;;;;;1.25;0.80;;;18.60;49.80;;;;;;5035467;28;20026;-66
2024/01/20 03:33:29;;;;;;;1.38;0.90;;;18.60;50.30;;;;;;5039957;28;20029;-67
2024/01/20 03:35:55;;;;;;;1.38;0.90;;;18.60;49.80;;;;;;5039089;28;20379;-63
2024/01/20 03:38:20;;;;;;;1.35;0.80;;;18.50;49.80;;;;;;5033997;28;20181;-63
2024/01/20 03:40:46;;;;;;;1.98;1.00;;;18.60;49.80;;;;;;5038183;28;20049;-63
2024/01/20 03:43:12;;;;;;;1.25;0.90;;;18.50;49.80;;;;;;5038002;28;20485;-63
2024/01/20 03:45:43;;;;;;;1.45;0.90;;;18.60;49.80;;;;;;5035848;28;20743;-64
2024/01/20 03:48:09;;;;;;;1.25;0.90;;;18.60;49.80;;;;;;5037219;28;20029;-63
2024/01/20 03:50:35;;;;;;;1.25;0.90;;;18.50;49.80;;;;;;5038495;28;20103;-62
2024/01/20 03:53:01;;;;;;;1.60;0.90;;;18.50;49.80;;;;;;5038779;28;20033;-63
2024/01/20 03:55:27;;;;;;;1.20;0.80;;;18.50;49.80;;;;;;5037060;28;20037;-62
2024/01/20 03:57:53;;;;;;;1.35;0.90;;;18.50;49.80;;;;;;5038575;28;20025;-62
2024/01/20 04:00:18;;;;;;;1.13;0.90;;;18.50;49.80;;;;;;5034499;28;20080;-63
2024/01/20 04:02:44;;;;;;;1.00;0.75;;;18.50;49.80;;;;;;5039656;28;20025;-62
2024/01/20 04:05:10;;;;;;;1.33;1.00;;;18.50;49.70;;;;;;5036970;28;20075;-63
2024/01/20 04:07:38;;;;;;;1.38;0.85;;;18.50;49.80;;;;;;5037071;28;20057;-62
2024/01/20 04:10:04;;;;;;;1.30;0.90;;;18.50;49.80;;;;;;5036891;28;20296;-62
2024/01/20 04:12:29;;;;;;;1.13;0.80;;;18.50;49.80;;;;;;5036096;28;20033;-62
2024/01/20 04:14:58;;;;;;;2.17;1.02;;;18.50;49.80;;;;;;5038583;28;20021;-62
2024/01/20 04:17:23;;;;;;;1.10;0.90;;;18.50;49.80;;;;;;5039496;28;20025;-63
2024/01/20 04:19:49;;;;;;;1.52;0.88;;;18.50;49.80;;;;;;5041635;28;20025;-63
2024/01/20 04:22:14;;;;;;;1.10;0.90;;;18.50;49.80;;;;;;5038867;28;20032;-62
2024/01/20 04:24:40;;;;;;;1.35;0.90;;;18.50;49.80;;;;;;5041220;28;20041;-64
2024/01/20 04:27:06;;;;;;;1.00;0.82;;;18.50;49.80;;;;;;5040136;28;20578;-63
2024/01/20 04:29:32;;;;;;;1.10;0.80;;;18.50;49.80;;;;;;5039124;28;23250;-63
2024/01/20 04:31:57;;;;;;;1.40;1.00;;;18.50;49.80;;;;;;5039414;28;20033;-64
2024/01/20 04:34:23;;;;;;;1.25;0.80;;;18.50;49.80;;;;;;5041331;28;20022;-62
2024/01/20 04:36:48;;;;;;;1.40;0.77;;;18.50;49.80;;;;;;5042207;28;20060;-66
2024/01/20 04:39:14;;;;;;;1.38;0.90;;;18.50;49.80;;;;;;5039729;28;20512;-65
2024/01/20 04:41:40;;;;;;;1.25;0.82;;;18.50;49.80;;;;;;5040136;28;20234;-66
2024/01/20 04:44:05;;;;;;;0.98;0.80;;;18.40;49.70;;;;;;5039822;28;20108;-65
2024/01/20 04:46:31;;;;;;;1.25;0.90;;;18.40;49.70;;;;;;5039146;28;20455;-64
2024/01/20 04:48:57;;;;;;;1.73;0.90;;;18.50;49.80;;;;;;5040357;28;20385;-64
2024/01/20 04:51:23;;;;;;;1.13;0.88;;;18.40;49.70;;;;;;5039955;28;20423;-64
2024/01/20 04:53:48;;;;;;;1.42;0.80;;;18.40;49.70;;;;;;5041715;28;20119;-64
2024/01/20 04:56:24;;;;;;;1.50;0.90;;;18.40;49.70;;;;;;5043224;28;20109;-63
2024/01/20 04:58:51;;;;;;;1.52;0.90;;;18.40;49.70;;;;;;5039860;28;20508;-64
2024/01/20 05:01:17;;;;;;;1.35;0.90;;;18.40;49.70;;;;;;5037152;28;20371;-63
2024/01/20 05:03:43;;;;;;;1.00;0.80;;;18.50;49.80;;;;;;5042786;28;20028;-64
2024/01/20 05:06:09;;;;;;;1.83;1.10;;;18.40;49.80;;;;;;5040045;28;20490;-64
2024/01/20 05:08:34;;;;;;;1.30;0.90;;;18.40;49.70;;;;;;5039989;28;20056;-64
2024/01/20 05:11:00;;;;;;;1.40;0.90;;;18.40;49.70;;;;;;5039853;28;20018;-64
2024/01/20 05:13:26;;;;;;;1.15;0.95;;;18.40;49.70;;;;;;5041565;28;20025;-65
2024/01/20 05:15:53;;;;;;;1.23;0.85;;;18.40;49.70;;;;;;5038964;28;20036;-63
2024/01/20 05:18:19;;;;;;;1.20;0.82;;;18.40;49.80;;;;;;5039687;28;20041;-62
2024/01/20 05:20:45;;;;;;;1.65;1.00;;;18.40;49.70;;;;;;5040642;28;20369;-62
2024/01/20 05:23:10;;;;;;;1.40;0.90;;;18.40;49.70;;;;;;5039068;28;20093;-62
2024/01/20 05:25:36;;;;;;;1.15;0.80;;;18.40;49.70;;;;;;5039639;28;20030;-62
2024/01/20 05:28:02;;;;;;;1.30;0.95;;;18.40;49.70;;;;;;5043017;28;20045;-62
2024/01/20 05:30:27;;;;;;;1.15;0.90;;;18.40;49.70;;;;;;5037667;28;20033;-64
2024/01/20 05:32:53;;;;;;;1.27;0.95;;;18.40;49.80;;;;;;5043047;28;20905;-62
2024/01/20 05:35:18;;;;;;;1.67;1.00;;;18.40;49.70;;;;;;5038844;28;20033;-62
2024/01/20 05:37:44;;;;;;;1.48;1.02;;;18.40;49.70;;;;;;5039900;28;20028;-63
2024/01/20 05:40:10;;;;;;;1.10;0.90;;;18.40;49.70;;;;;;5041162;28;20028;-62
2024/01/20 05:42:36;;;;;;;1.40;0.90;;;18.40;49.70;;;;;;5039339;28;20033;-62
2024/01/20 05:45:02;;;;;;;1.45;0.80;;;18.40;49.70;;;;;;5035664;28;20155;-67
2024/01/20 05:47:27;;;;;;;1.40;0.90;;;18.40;49.70;;;;;;5038554;28;20440;-67
2024/01/20 05:49:53;;;;;;;1.45;1.00;;;18.40;49.70;;;;;;5038167;28;20127;-67
2024/01/20 05:52:19;;;;;;;1.35;0.90;;;18.40;49.70;;;;;;5039245;28;20099;-67
2024/01/20 05:54:44;;;;;;;1.25;0.93;;;18.40;49.70;;;;;;5041131;28;20109;-67
2024/01/20 05:57:10;;;;;;;1.13;0.90;;;18.40;49.70;;;;;;5040769;28;20025;-63
2024/01/20 05:59:36;;;;;;;1.25;0.82;;;18.40;49.70;;;;;;5039714;28;20549;-62
2024/01/20 06:02:02;;;;;;;1.27;0.95;;;18.40;49.70;;;;;;5039006;28;20120;-62
2024/01/20 06:04:27;;;;;;;1.10;1.00;;;18.40;49.70;;;;;;5038794;28;20333;-63
2024/01/20 06:06:53;;;;;;;1.63;1.00;;;18.40;49.70;;;;;;5039370;28;20032;-63
2024/01/20 06:09:18;;;;;;;1.05;0.80;;;18.40;49.70;;;;;;5038633;28;20036;-62
2024/01/20 06:11:44;;;;;;;1.42;0.98;;;18.40;49.70;;;;;;5040114;28;20123;-63
2024/01/20 06:14:10;;;;;;;1.50;1.00;;;18.40;49.70;;;;;;5038859;28;20021;-62
2024/01/20 06:16:38;;;;;;;1.30;0.88;;;18.40;49.70;;;;;;5037295;28;20104;-63
2024/01/20 06:19:05;;;;;;;1.47;1.00;;;18.40;49.70;;;;;;5038841;28;20022;-64
2024/01/20 06:21:30;;;;;;;1.30;0.88;;;18.40;49.70;;;;;;5035450;28;20029;-63
2024/01/20 06:23:56;;;;;;;1.60;0.90;;;18.40;49.70;;;;;;5038302;28;20030;-62
2024/01/20 06:26:21;;;;;;;1.27;0.90;;;18.40;49.70;;;;;;5038610;28;20543;-63
2024/01/20 06:28:47;;;;;;;1.88;1.00;;;18.40;49.70;;;;;;5039470;28;20043;-63
2024/01/20 06:31:27;;;;;;;1.65;1.00;;;18.40;49.70;;;;;;5036840;28;20496;-63
2024/01/20 06:33:53;;;;;;;;;;;18.40;49.70;;;;;;5041818;28;20037;-63
2024/01/20 06:36:25;;;;;;;1.48;1.10;;;18.40;49.70;;;;;;5037989;28;19905;-64
2024/01/20 06:38:50;;;;;;;1.90;1.10;;;18.40;49.70;;;;;;5039774;28;20465;-64
2024/01/20 06:41:21;;;;;;;2.03;1.45;;;18.40;49.70;;;;;;5036595;28;20021;-64
2024/01/20 06:43:47;;;;;;;1.33;0.90;;;18.40;49.70;;;;;;5038667;28;20017;-64
2024/01/20 06:46:13;;;;;;;1.65;0.93;;;18.40;49.70;;;;;;5034984;28;20343;-63
2024/01/20 06:48:39;;;;;;;2.65;1.00;;;18.40;49.70;;;;;;5039037;28;20029;-64
2024/01/20 06:51:04;;;;;;;2.25;1.10;;;18.40;49.70;;;;;;5038394;28;20021;-64
2024/01/20 06:53:31;;;;;;;1.90;1.20;;;18.40;49.70;;;;;;5036994;28;20508;-63
2024/01/20 06:55:57;;;;;;;1.50;1.02;;;18.40;49.70;;;;;;5038242;28;20040;-67
2024/01/20 06:58:23;;;;;;;2.35;1.20;;;18.40;50.00;;;;;;5037123;28;20029;-66
2024/01/20 07:00:49;;;;;;;2.10;1.20;;;18.40;49.70;;;;;;5036538;28;20087;-67
2024/01/20 07:03:15;;;;;;;1.85;1.17;;;18.40;49.70;;;;;;5038288;28;20080;-66
2024/01/20 07:05:41;;;;;;;3.15;1.15;;;18.40;49.70;;;;;;5037782;28;20036;-63
2024/01/20 07:08:07;;;;;;;1.95;1.00;;;18.40;49.70;;;;;;5042727;28;20030;-63
2024/01/20 07:10:32;;;;;;;1.95;1.20;;;18.40;49.70;;;;;;5040131;28;20883;-63
2024/01/20 07:12:58;;;;;;;1.40;0.90;;;18.40;49.70;;;;;;5038543;28;20379;-63
2024/01/20 07:15:24;;;;;;;1.60;1.10;;;18.40;49.70;;;;;;5037752;28;20124;-62
2024/01/20 07:17:50;;;;;;;1.67;1.10;;;18.40;49.70;;;;;;5038103;28;20038;-63
2024/01/20 07:20:16;;;;;;;1.30;0.90;;;18.40;49.70;;;;;;5037151;28;20072;-63
2024/01/20 07:22:41;;;;;;;1.88;1.00;;;18.40;49.70;;;;;;5038754;28;20116;-62
2024/01/20 07:25:08;;;;;;;1.95;1.10;;;18.40;49.70;;;;;;5038510;28;20040;-64
2024/01/20 07:27:34;;;;;;;1.63;1.00;;;18.40;49.70;;;;;;5038213;28;20499;-63
2024/01/20 07:30:00;;;;;;;1.90;1.17;;;18.40;49.70;;;;;;5036469;28;20038;-62
2024/01/20 07:32:25;;;;;;;2.00;1.05;;;18.40;49.70;;;;;;5035836;28;20061;-62
2024/01/20 07:34:51;;;;;;;2.47;1.30;;;18.40;49.70;;;;;;5040434;28;20063;-63
2024/01/20 07:37:17;;;;;;;2.50;1.10;;;18.40;49.70;;;;;;5037175;28;20075;-62
2024/01/20 07:39:42;;;;;;;1.95;1.08;;;18.40;49.70;;;;;;5036453;28;20021;-63
2024/01/20 07:42:08;;;;;;;1.75;1.08;;;18.40;49.60;;;;;;5038683;28;20087;-63
2024/01/20 07:44:34;;;;;;;2.38;1.20;;;18.40;49.70;;;;;;5040161;28;20026;-63
2024/01/20 07:46:59;;;;;;;2.03;1.20;;;18.40;49.60;;;;;;5040576;28;20462;-63
2024/01/20 07:49:25;;;;;;;1.98;1.38;;;18.40;49.60;;;;;;5042798;28;20024;-63
2024/01/20 07:51:50;;;;;;;2.13;1.00;;;18.40;49.60;;;;;;5041612;28;20025;-63
2024/01/20 07:54:16;;;;;;;3.05;1.20;;;18.40;49.60;;;;;;5038463;28;20032;-63
2024/01/20 07:56:42;;;;;;;2.42;0.90;;;18.40;49.60;;;;;;5042358;28;20104;-63
2024/01/20 07:59:08;;;;;;;1.90;1.20;;;18.40;49.60;;;;;;5040545;28;20025;-64
2024/01/20 08:01:33;;;;;;;2.10;1.00;;;18.40;49.60;;;;;;5035869;28;20025;-64
2024/01/20 08:03:59;;;;;;;2.17;1.17;;;18.40;49.60;;;;;;5040673;28;20444;-65
2024/01/20 08:06:26;;;;;;;3.25;1.20;;;18.40;49.60;;;;;;5040748;28;20028;-66
2024/01/20 08:08:52;;;;;;;1.77;1.10;;;18.40;49.60;;;;;;5041655;28;20025;-66
2024/01/20 08:11:18;;;;;;;2.58;1.30;;;18.40;49.50;;;;;;5043072;28;20155;-66
2024/01/20 08:13:43;;;;;;;2.00;1.02;;;18.40;49.50;;;;;;5041685;28;20478;-65
2024/01/20 08:16:09;;;;;;;2.25;1.23;;;18.40;49.50;;;;;;5040770;28;20057;-66
2024/01/20 08:18:34;;;;;;;1.70;1.10;;;18.40;49.50;;;;;;5041629;28;20053;-66
2024/01/20 08:21:05;;;;;;;2.33;1.00;;;18.40;49.50;;;;;;5042732;28;20039;-66
2024/01/20 08:23:31;;;;;;;1.88;1.00;;;18.40;49.50;;;;;;5041658;28;20032;-65
2024/01/20 08:25:58;;;;;;;2.40;1.17;;;18.40;49.40;;;;;;5037245;28;20132;-65
2024/01/20 08:28:23;;;;;;;2.03;1.20;;;18.30;49.40;;;;;;5042182;28;20523;-66
2024/01/20 08:30:49;;;;;;;1.58;1.05;;;18.40;49.40;;;;;;5042044;28;20025;-66
2024/01/20 08:33:14;;;;;;;2.08;1.20;;;18.40;49.40;;;;;;5037327;28;20026;-66
2024/01/20 08:35:40;;;;;;;2.80;1.30;;;18.40;49.30;;;;;;5040026;28;20026;-65
2024/01/20 08:38:06;;;;;;;2.40;1.30;;;18.40;49.40;;;;;;5041142;28;20493;-66
2024/01/20 08:40:31;;;;;;;2.53;1.20;;;18.40;49.40;;;;;;5041632;28;20069;-66
2024/01/20 08:42:57;;;;;;;2.90;1.13;;;18.30;49.30;;;;;;5038878;28;20030;-66
2024/01/20 08:45:23;;;;;;;2.60;1.05;;;18.40;49.30;;;;;;5041407;28;20031;-66
2024/01/20 08:47:48;;;;;;;2.53;1.40;;;18.30;49.30;;;;;;5037871;28;20176;-65
2024/01/20 08:50:14;;;;;;;2.50;1.33;;;18.30;49.20;;;;;;5040861;28;20111;-66
2024/01/20 08:52:40;;;;;;;1.67;1.08;;;18.40;49.30;;;;;;5041789;28;20393;-65
2024/01/20 08:55:06;;;;;;;2.03;1.30;;;18.30;49.30;;;;;;5041674;28;20025;-65
2024/01/20 08:57:33;;;;;;;2.92;1.35;;;18.30;49.20;;;;;;5040622;28;20021;-66
2024/01/20 08:59:59;;;;;;;3.88;1.38;;;18.30;49.20;;;;;;5040396;28;20359;-65
2024/01/20 09:02:24;;;;;;;3.30;1.30;;;18.30;49.20;;;;;;5039674;28;20140;-65
2024/01/20 09:04:50;;;;;;;2.53;1.35;;;18.30;49.20;;;;;;5038345;28;20068;-66
2024/01/20 09:07:16;;;;;;;2.15;1.30;;;18.30;49.20;;;;;;5040050;28;20100;-65
2024/01/20 09:09:41;;;;;;;2.83;1.40;;;18.30;49.10;;;;;;5036233;28;20083;-65
2024/01/20 09:12:07;;;;;;;2.10;1.23;;;18.30;49.10;;;;;;5037323;28;20091;-65
2024/01/20 09:14:33;;;;;;;3.08;1.30;;;18.30;49.10;;;;;;5041020;28;20092;-65
2024/01/20 09:16:58;;;;;;;2.10;1.20;;;18.30;49.10;;;;;;5037267;28;20019;-64
2024/01/20 09:19:24;;;;;;;3.35;1.40;;;18.30;49.10;;;;;;5041395;28;20021;-63
2024/01/20 09:21:50;;;;;;;2.15;1.40;;;18.30;49.10;;;;;;5038783;28;20034;-63
2024/01/20 09:24:16;;;;;;;2.10;1.45;;;18.30;49.20;;;;;;5039993;28;20358;-64
2024/01/20 09:26:42;;;;;;;2.13;1.27;;;18.30;49.20;;;;;;5040083;28;20044;-63
2024/01/20 09:29:07;;;;;;;2.65;1.40;;;18.30;49.20;;;;;;5040886;28;20170;-63
2024/01/20 09:31:33;;;;;;;2.25;1.30;;;18.30;49.20;;;;;;5040431;28;20397;-62
2024/01/20 09:33:58;;;;;;;1.90;1.30;;;18.30;49.20;;;;;;5042828;28;20033;-62
2024/01/20 09:36:24;;;;;;;1.83;1.20;;;18.30;49.20;;;;;;5038750;28;20025;-62
2024/01/20 09:38:50;;;;;;;2.25;1.40;;;18.30;49.20;;;;;;5040487;28;20068;-62
2024/01/20 09:41:16;;;;;;;2.10;1.33;;;18.30;49.20;;;;;;5036761;28;20029;-64
2024/01/20 09:43:43;;;;;;;1.92;1.27;;;18.30;49.20;;;;;;5037948;28;20409;-62
2024/01/20 09:46:09;;;;;;;3.05;1.30;;;18.30;49.20;;;;;;5038488;28;20424;-62
2024/01/20 09:48:34;;;;;;;2.55;1.42;;;18.30;49.20;;;;;;5034384;28;20036;-63
2024/01/20 09:51:01;;;;;;;2.13;1.30;;;18.30;49.20;;;;;;5039186;28;20068;-63
2024/01/20 09:53:28;;;;;;;1.67;1.20;;;18.30;49.20;;;;;;5052072;28;20039;-62
2024/01/20 09:55:55;;;;;;;1.63;1.15;;;18.30;49.20;;;;;;5041519;28;20017;-62
2024/01/20 09:58:22;;;;;;;3.30;1.42;;;18.30;49.30;;;;;;5040173;28;20029;-62
2024/01/20 10:00:49;;;;;;;3.78;1.33;;;18.30;49.80;;;;;;5035929;28;20048;-62
2024/01/20 10:03:17;;;;;;;1.67;1.13;;;18.30;49.30;;;;;;5036920;28;20551;-61
2024/01/20 10:05:43;;;;;;;2.67;1.33;;;18.30;49.30;;;;;;5040610;28;20369;-61
2024/01/20 10:08:08;;;;;;;2.20;1.30;;;18.30;49.30;;;;;;5037884;28;20018;-61
2024/01/20 10:10:39;;;;;;;1.80;1.20;;;18.30;49.30;;;;;;5039626;28;20035;-61
2024/01/20 10:13:05;;;;;;;1.90;1.30;;;18.30;49.30;;;;;;5038917;28;20035;-61
2024/01/20 10:15:32;;;;;;;2.95;1.40;;;18.30;49.30;;;;;;5038765;28;20107;-63
2024/01/20 10:17:59;;;;;;;2.08;1.33;;;18.30;49.30;;;;;;5037478;28;20210;-62
2024/01/20 10:20:34;;;;;;;3.88;1.35;;;18.20;49.30;;;;;;5037780;28;20492;-61
2024/01/20 10:23:01;;;;;;;2.20;1.23;;;18.30;49.40;;;;;;5035747;28;20045;-62
2024/01/20 10:25:26;;;;;;;2.70;1.30;;;18.20;49.40;;;;;;5037556;28;20104;-62
2024/01/20 10:27:53;;;;;;;2.05;1.20;;;18.30;49.40;;;;;;5040129;28;20347;-62
2024/01/20 10:30:24;;;;;;;2.47;1.55;;;18.20;49.40;;;;;;5035002;28;20035;-62
2024/01/20 10:32:51;;;;;;;1.98;1.38;;;18.30;49.40;;;;;;5037813;28;20112;-63
2024/01/20 10:35:16;;;;;;;2.17;1.40;;;18.30;49.40;;;;;;5039532;28;20110;-63
2024/01/20 10:37:44;;;;;;;2.78;1.17;;;18.20;49.40;;;;;;5035247;28;20038;-61
2024/01/20 10:40:14;;;;;;;2.22;1.40;;;18.30;50.00;;;;;;5039638;28;20192;-61
2024/01/20 10:42:54;;;;;;;2.28;1.40;;;18.30;49.50;;;;;;5039159;28;20028;-61
2024/01/20 10:45:21;;;;;;;1.70;1.10;;;18.30;49.50;;;;;;5036763;28;20052;-61
2024/01/20 10:48:01;;;;;;;2.45;1.50;;;18.20;50.00;;;;;;5036213;28;20434;-64
2024/01/20 10:50:26;;;;;;;;;;;18.30;49.60;;;;;;5055873;28;20025;-65
2024/01/20 10:52:52;;;;;;;2.63;1.42;;;18.30;49.80;;;;;;5038732;28;19928;-65
2024/01/20 10:55:19;;;;;;;1.98;1.25;;;18.30;49.70;;;;;;5037271;28;20048;-63
2024/01/20 10:57:46;;;;;;;2.20;1.30;;;18.30;49.70;;;;;;5038727;28;20071;-63
2024/01/20 11:00:14;;;;;;;2.03;1.33;;;18.40;49.70;;;;;;5040228;28;20053;-61
2024/01/20 11:02:40;;;;;;;2.00;1.17;;;18.50;49.80;;;;;;5036568;28;20462;-62
2024/01/20 11:05:22;;;;;;;2.05;1.20;;;18.50;49.80;;;;;;5035025;28;20465;-62
2024/01/20 11:07:56;;;;;;;2.42;1.50;;;18.50;49.70;;;;;;5035605;28;20021;-63
2024/01/20 11:10:25;;;;;;;1.85;1.30;;;18.60;49.70;;;;;;5039092;28;20504;-63
2024/01/20 11:13:04;;;;;;;2.85;1.23;;;18.70;49.60;;;;;;5038170;28;20022;-62
2024/01/20 11:15:30;;;;;;;;;;;18.70;49.50;;;;;;5041588;28;20049;-63
2024/01/20 11:17:56;;;;;;;1.90;1.35;;;18.80;49.50;;;;;;5039320;28;19909;-62
2024/01/20 11:20:22;;;;;;;1.80;1.33;;;18.90;49.60;;;;;;5038429;28;20041;-62
2024/01/20 11:22:48;;;;;;;2.20;1.20;;;18.90;49.50;;;;;;5038771;28;20042;-64
2024/01/20 11:25:14;;;;;;;1.75;1.20;;;18.90;49.50;;;;;;5038671;28;20544;-62
2024/01/20 11:28:02;;;;;;;2.13;1.30;;;18.90;49.40;;;;;;5037956;28;20060;-64
2024/01/20 11:30:33;;;;;;;2.07;1.30;;;18.90;49.40;;;;;;5037330;28;20501;-62
2024/01/20 11:32:59;;;;;;;2.10;1.30;;;18.90;49.40;;;;;;5034949;28;20032;-63
2024/01/20 11:35:25;;;;;;;1.75;1.27;;;18.90;49.40;;;;;;5039528;28;20017;-64
2024/01/20 11:37:54;;;;;;;2.15;1.33;;;18.90;49.40;;;;;;5037520;28;20101;-65
2024/01/20 11:40:21;;;;;;;2.10;1.20;;;18.90;49.30;;;;;;5036795;28;20079;-66
2024/01/20 11:42:47;;;;;;;2.35;1.42;;;18.90;49.30;;;;;;5036842;28;20022;-66
2024/01/20 11:45:13;;;;;;;2.00;1.30;;;18.90;49.40;;;;;;5037562;28;20040;-66
2024/01/20 11:47:40;;;;;;;3.05;1.30;;;18.90;49.30;;;;;;5034938;28;20033;-68
2024/01/20 11:50:06;;;;;;;2.20;1.40;;;18.90;49.30;;;;;;5038497;28;20131;-69
2024/01/20 11:52:32;;;;;;;2.20;1.38;;;18.90;49.30;;;;;;5037831;28;20199;-68
2024/01/20 11:54:58;;;;;;;2.50;1.30;;;18.90;49.30;;;;;;5038831;28;20777;-69
2024/01/20 11:57:31;;;;;;;2.42;1.45;;;18.90;49.30;;;;;;5034415;28;20041;-66
2024/01/20 11:59:58;;;;;;;3.20;1.48;;;18.90;49.20;;;;;;5037707;28;20021;-66
2024/01/20 12:02:25;;;;;;;2.40;1.52;;;18.90;49.70;;;;;;5034452;28;20024;-65
2024/01/20 12:04:51;;;;;;;2.28;1.45;;;18.90;49.20;;;;;;5035949;28;20111;-65
2024/01/20 12:07:20;;;;;;;2.92;1.50;;;19.00;49.20;;;;;;5036831;28;20121;-65
2024/01/20 12:09:50;;;;;;;3.10;1.30;;;19.00;49.20;;;;;;5038050;28;20026;-65
2024/01/20 12:12:16;;;;;;;2.55;1.67;;;19.00;49.20;;;;;;5035629;28;20029;-65
2024/01/20 12:14:42;;;;;;;2.80;1.40;;;19.00;49.10;;;;;;5037620;28;20098;-65
2024/01/20 12:17:09;;;;;;;2.60;1.40;;;19.10;49.20;;;;;;5035378;28;20024;-66
2024/01/20 12:19:38;;;;;;;2.50;1.50;;;19.10;49.20;;;;;;5035250;28;20028;-66
2024/01/20 12:22:14;;;;;;;2.35;1.40;;;19.10;49.20;;;;;;5039266;28;20029;-66
2024/01/20 12:24:48;;;;;;;3.17;1.70;;;19.10;49.20;;;;;;5037996;28;20112;-66
2024/01/20 12:27:18;;;;;;;2.83;1.50;;;19.10;49.10;;;;;;5036503;28;20029;-66
2024/01/20 12:29:44;;;;;;;;;;;19.10;49.10;;;;;;5038156;28;20494;-66
2024/01/20 12:32:10;;;;;;;2.58;1.60;;;19.10;49.10;;;;;;5039567;28;19985;-67
2024/01/20 12:34:35;;;;;;;2.35;1.55;;;19.20;49.10;;;;;;5040232;28;20040;-67
2024/01/20 12:37:01;;;;;;;2.67;1.50;;;19.20;49.10;;;;;;5041606;28;20044;-66
2024/01/20 12:39:26;;;;;;;2.70;1.40;;;19.20;49.00;;;;;;5041386;28;20021;-65
2024/01/20 12:41:53;;;;;;;2.35;1.65;;;19.20;49.00;;;;;;5041383;28;20037;-64
2024/01/20 12:44:20;;;;;;;2.05;1.40;;;19.20;49.00;;;;;;5040645;28;20073;-66